sensor_id;sensor_type;location;lat;lon;timestamp;P1;durP1;ratioP1;P2;durP2;ratioP2
24521;SDS011;12680;57.804;12.190;2023-09-07T00:02:34;11.13;;;7.03;;
24521;SDS011;12680;57.804;12.190;2023-09-07T00:05:09;8.93;;;6.40;;
24521;SDS011;12680;57.804;12.190;2023-09-07T00:07:44;9.18;;;6.50;;
24521;SDS011;12680;57.804;12.190;2023-09-07T00:10:22;9.88;;;6.20;;
24521;SDS011;12680;57.804;12.190;2023-09-07T00:12:52;10.73;;;6.05;;
24521;SDS011;12680;57.804;12.190;2023-09-07T00:15:28;13.45;;;6.20;;
24521;SDS011;12680;57.804;12.190;2023-09-07T00:18:06;8.60;;;6.43;;
24521;SDS011;12680;57.804;12.190;2023-09-07T00:20:46;8.23;;;6.20;;
24521;SDS011;12680;57.804;12.190;2023-09-07T00:23:20;9.32;;;7.30;;
24521;SDS011;12680;57.804;12.190;2023-09-07T00:25:58;8.57;;;5.82;;
24521;SDS011;12680;57.804;12.190;2023-09-07T00:28:25;11.73;;;6.80;;
24521;SDS011;12680;57.804;12.190;2023-09-07T00:30:52;9.48;;;6.68;;
24521;SDS011;12680;57.804;12.190;2023-09-07T00:33:26;11.18;;;6.43;;
24521;SDS011;12680;57.804;12.190;2023-09-07T00:36:03;8.18;;;6.32;;
24521;SDS011;12680;57.804;12.190;2023-09-07T00:38:39;9.27;;;5.78;;
24521;SDS011;12680;57.804;12.190;2023-09-07T00:41:09;8.93;;;5.80;;
24521;SDS011;12680;57.804;12.190;2023-09-07T00:43:46;10.13;;;6.35;;
24521;SDS011;12680;57.804;12.190;2023-09-07T00:46:14;11.68;;;6.68;;
24521;SDS011;12680;57.804;12.190;2023-09-07T00:48:48;7.60;;;6.20;;
24521;SDS011;12680;57.804;12.190;2023-09-07T00:51:16;8.80;;;6.15;;
24521;SDS011;12680;57.804;12.190;2023-09-07T00:53:43;7.93;;;5.78;;
24521;SDS011;12680;57.804;12.190;2023-09-07T00:56:21;9.02;;;5.95;;
24521;SDS011;12680;57.804;12.190;2023-09-07T00:58:48;7.45;;;5.90;;
24521;SDS011;12680;57.804;12.190;2023-09-07T01:01:23;9.07;;;6.03;;
24521;SDS011;12680;57.804;12.190;2023-09-07T01:03:51;8.25;;;5.07;;
24521;SDS011;12680;57.804;12.190;2023-09-07T01:06:39;10.40;;;6.22;;
24521;SDS011;12680;57.804;12.190;2023-09-07T01:09:19;8.57;;;5.68;;
24521;SDS011;12680;57.804;12.190;2023-09-07T01:12:00;9.35;;;5.93;;
24521;SDS011;12680;57.804;12.190;2023-09-07T01:14:27;9.50;;;5.68;;
24521;SDS011;12680;57.804;12.190;2023-09-07T01:17:01;9.77;;;5.93;;
24521;SDS011;12680;57.804;12.190;2023-09-07T01:19:33;11.00;;;6.40;;
24521;SDS011;12680;57.804;12.190;2023-09-07T01:22:08;8.52;;;5.65;;
24521;SDS011;12680;57.804;12.190;2023-09-07T01:24:37;10.50;;;6.38;;
24521;SDS011;12680;57.804;12.190;2023-09-07T01:27:05;8.60;;;5.93;;
24521;SDS011;12680;57.804;12.190;2023-09-07T01:29:39;9.82;;;6.40;;
24521;SDS011;12680;57.804;12.190;2023-09-07T01:32:10;12.00;;;6.70;;
24521;SDS011;12680;57.804;12.190;2023-09-07T01:34:50;8.00;;;5.53;;
24521;SDS011;12680;57.804;12.190;2023-09-07T01:37:18;9.40;;;6.68;;
24521;SDS011;12680;57.804;12.190;2023-09-07T01:39:55;10.35;;;6.25;;
24521;SDS011;12680;57.804;12.190;2023-09-07T01:42:27;10.57;;;5.82;;
24521;SDS011;12680;57.804;12.190;2023-09-07T01:44:54;8.30;;;5.93;;
24521;SDS011;12680;57.804;12.190;2023-09-07T01:47:35;9.63;;;6.00;;
24521;SDS011;12680;57.804;12.190;2023-09-07T01:50:06;8.17;;;6.23;;
24521;SDS011;12680;57.804;12.190;2023-09-07T01:52:47;10.95;;;6.03;;
24521;SDS011;12680;57.804;12.190;2023-09-07T01:55:31;10.40;;;6.20;;
24521;SDS011;12680;57.804;12.190;2023-09-07T01:58:06;7.40;;;5.95;;
24521;SDS011;12680;57.804;12.190;2023-09-07T02:00:42;8.95;;;6.43;;
24521;SDS011;12680;57.804;12.190;2023-09-07T02:03:16;10.32;;;6.72;;
24521;SDS011;12680;57.804;12.190;2023-09-07T02:05:46;13.48;;;6.35;;
24521;SDS011;12680;57.804;12.190;2023-09-07T02:08:13;8.68;;;5.93;;
24521;SDS011;12680;57.804;12.190;2023-09-07T02:10:52;7.82;;;6.22;;
24521;SDS011;12680;57.804;12.190;2023-09-07T02:13:23;12.55;;;7.35;;
24521;SDS011;12680;57.804;12.190;2023-09-07T02:15:56;22.40;;;8.07;;
24521;SDS011;12680;57.804;12.190;2023-09-07T02:18:30;12.77;;;7.88;;
24521;SDS011;12680;57.804;12.190;2023-09-07T02:21:06;14.70;;;8.30;;
24521;SDS011;12680;57.804;12.190;2023-09-07T02:23:33;14.15;;;7.55;;
24521;SDS011;12680;57.804;12.190;2023-09-07T02:26:14;11.55;;;7.85;;
24521;SDS011;12680;57.804;12.190;2023-09-07T02:28:48;14.32;;;8.27;;
24521;SDS011;12680;57.804;12.190;2023-09-07T02:31:25;13.40;;;8.45;;
24521;SDS011;12680;57.804;12.190;2023-09-07T02:33:53;17.55;;;8.57;;
24521;SDS011;12680;57.804;12.190;2023-09-07T02:36:20;12.48;;;7.78;;
24521;SDS011;12680;57.804;12.190;2023-09-07T02:38:54;17.83;;;9.32;;
24521;SDS011;12680;57.804;12.190;2023-09-07T02:41:24;13.05;;;9.07;;
24521;SDS011;12680;57.804;12.190;2023-09-07T02:44:04;11.80;;;8.68;;
24521;SDS011;12680;57.804;12.190;2023-09-07T02:46:32;13.07;;;8.18;;
24521;SDS011;12680;57.804;12.190;2023-09-07T02:49:05;12.95;;;8.60;;
24521;SDS011;12680;57.804;12.190;2023-09-07T02:51:32;13.82;;;8.13;;
24521;SDS011;12680;57.804;12.190;2023-09-07T02:54:12;11.57;;;8.48;;
24521;SDS011;12680;57.804;12.190;2023-09-07T02:56:56;13.98;;;8.77;;
24521;SDS011;12680;57.804;12.190;2023-09-07T02:59:33;18.55;;;8.75;;
24521;SDS011;12680;57.804;12.190;2023-09-07T03:02:00;14.75;;;9.48;;
24521;SDS011;12680;57.804;12.190;2023-09-07T03:04:37;19.00;;;10.23;;
24521;SDS011;12680;57.804;12.190;2023-09-07T03:07:04;14.68;;;9.70;;
24521;SDS011;12680;57.804;12.190;2023-09-07T03:09:31;15.38;;;9.77;;
24521;SDS011;12680;57.804;12.190;2023-09-07T03:12:09;17.65;;;9.43;;
24521;SDS011;12680;57.804;12.190;2023-09-07T03:14:42;15.45;;;9.55;;
24521;SDS011;12680;57.804;12.190;2023-09-07T03:17:20;15.43;;;8.63;;
24521;SDS011;12680;57.804;12.190;2023-09-07T03:19:48;18.05;;;9.75;;
24521;SDS011;12680;57.804;12.190;2023-09-07T03:22:22;18.77;;;10.02;;
24521;SDS011;12680;57.804;12.190;2023-09-07T03:24:50;16.27;;;9.82;;
24521;SDS011;12680;57.804;12.190;2023-09-07T03:27:28;16.27;;;9.50;;
24521;SDS011;12680;57.804;12.190;2023-09-07T03:29:55;15.90;;;9.07;;
24521;SDS011;12680;57.804;12.190;2023-09-07T03:32:22;14.73;;;9.40;;
24521;SDS011;12680;57.804;12.190;2023-09-07T03:35:04;17.15;;;8.77;;
24521;SDS011;12680;57.804;12.190;2023-09-07T03:37:37;17.48;;;9.75;;
24521;SDS011;12680;57.804;12.190;2023-09-07T03:40:10;14.93;;;9.15;;
24521;SDS011;12680;57.804;12.190;2023-09-07T03:42:41;20.90;;;9.57;;
24521;SDS011;12680;57.804;12.190;2023-09-07T03:45:19;14.38;;;9.38;;
24521;SDS011;12680;57.804;12.190;2023-09-07T03:47:49;15.13;;;8.35;;
24521;SDS011;12680;57.804;12.190;2023-09-07T03:50:17;12.35;;;7.90;;
24521;SDS011;12680;57.804;12.190;2023-09-07T03:53:01;15.55;;;8.60;;
24521;SDS011;12680;57.804;12.190;2023-09-07T03:55:46;11.35;;;7.72;;
24521;SDS011;12680;57.804;12.190;2023-09-07T03:58:20;15.52;;;8.20;;
24521;SDS011;12680;57.804;12.190;2023-09-07T04:00:47;10.30;;;7.60;;
24521;SDS011;12680;57.804;12.190;2023-09-07T04:03:14;15.15;;;7.43;;
24521;SDS011;12680;57.804;12.190;2023-09-07T04:05:58;12.25;;;7.50;;
24521;SDS011;12680;57.804;12.190;2023-09-07T04:08:29;13.68;;;7.57;;
24521;SDS011;12680;57.804;12.190;2023-09-07T04:11:04;11.50;;;7.88;;
24521;SDS011;12680;57.804;12.190;2023-09-07T04:13:32;14.32;;;6.90;;
24521;SDS011;12680;57.804;12.190;2023-09-07T04:16:02;13.50;;;7.45;;
24521;SDS011;12680;57.804;12.190;2023-09-07T04:18:40;11.52;;;6.82;;
24521;SDS011;12680;57.804;12.190;2023-09-07T04:21:12;11.43;;;6.97;;
24521;SDS011;12680;57.804;12.190;2023-09-07T04:23:52;15.85;;;6.95;;
24521;SDS011;12680;57.804;12.190;2023-09-07T04:26:19;9.27;;;6.97;;
24521;SDS011;12680;57.804;12.190;2023-09-07T04:28:52;12.40;;;6.63;;
24521;SDS011;12680;57.804;12.190;2023-09-07T04:31:18;10.90;;;6.60;;
24521;SDS011;12680;57.804;12.190;2023-09-07T04:33:53;12.57;;;5.97;;
24521;SDS011;12680;57.804;12.190;2023-09-07T04:36:20;12.73;;;6.68;;
24521;SDS011;12680;57.804;12.190;2023-09-07T04:39:00;8.88;;;6.90;;
24521;SDS011;12680;57.804;12.190;2023-09-07T04:41:28;13.20;;;6.78;;
24521;SDS011;12680;57.804;12.190;2023-09-07T04:43:55;12.75;;;6.85;;
24521;SDS011;12680;57.804;12.190;2023-09-07T04:46:28;11.93;;;7.22;;
24521;SDS011;12680;57.804;12.190;2023-09-07T04:48:55;11.20;;;6.20;;
24521;SDS011;12680;57.804;12.190;2023-09-07T04:51:23;11.02;;;6.60;;
24521;SDS011;12680;57.804;12.190;2023-09-07T04:54:04;10.98;;;6.90;;
24521;SDS011;12680;57.804;12.190;2023-09-07T04:56:38;10.57;;;6.65;;
24521;SDS011;12680;57.804;12.190;2023-09-07T04:59:05;13.85;;;6.65;;
24521;SDS011;12680;57.804;12.190;2023-09-07T05:01:35;8.23;;;6.13;;
24521;SDS011;12680;57.804;12.190;2023-09-07T05:04:09;12.68;;;7.20;;
24521;SDS011;12680;57.804;12.190;2023-09-07T05:06:36;11.52;;;6.50;;
24521;SDS011;12680;57.804;12.190;2023-09-07T05:09:11;10.18;;;6.07;;
24521;SDS011;12680;57.804;12.190;2023-09-07T05:11:38;10.00;;;6.10;;
24521;SDS011;12680;57.804;12.190;2023-09-07T05:14:05;10.63;;;7.00;;
24521;SDS011;12680;57.804;12.190;2023-09-07T05:16:38;10.18;;;6.15;;
24521;SDS011;12680;57.804;12.190;2023-09-07T05:19:05;7.13;;;5.75;;
24521;SDS011;12680;57.804;12.190;2023-09-07T05:21:38;8.05;;;5.95;;
24521;SDS011;12680;57.804;12.190;2023-09-07T05:24:05;11.52;;;6.90;;
24521;SDS011;12680;57.804;12.190;2023-09-07T05:26:38;10.25;;;5.95;;
24521;SDS011;12680;57.804;12.190;2023-09-07T05:29:06;8.60;;;5.65;;
24521;SDS011;12680;57.804;12.190;2023-09-07T05:31:39;10.00;;;6.22;;
24521;SDS011;12680;57.804;12.190;2023-09-07T05:34:06;11.07;;;5.88;;
24521;SDS011;12680;57.804;12.190;2023-09-07T05:36:40;9.30;;;5.85;;
24521;SDS011;12680;57.804;12.190;2023-09-07T05:39:07;10.57;;;5.30;;
24521;SDS011;12680;57.804;12.190;2023-09-07T05:41:34;8.60;;;5.72;;
24521;SDS011;12680;57.804;12.190;2023-09-07T05:44:07;9.30;;;5.43;;
24521;SDS011;12680;57.804;12.190;2023-09-07T05:46:34;8.50;;;4.70;;
24521;SDS011;12680;57.804;12.190;2023-09-07T05:49:07;6.97;;;4.95;;
24521;SDS011;12680;57.804;12.190;2023-09-07T05:51:37;8.65;;;5.28;;
24521;SDS011;12680;57.804;12.190;2023-09-07T05:54:11;11.52;;;5.10;;
24521;SDS011;12680;57.804;12.190;2023-09-07T05:56:44;10.15;;;5.72;;
24521;SDS011;12680;57.804;12.190;2023-09-07T05:59:11;7.45;;;5.03;;
24521;SDS011;12680;57.804;12.190;2023-09-07T06:01:44;8.55;;;4.93;;
24521;SDS011;12680;57.804;12.190;2023-09-07T06:04:14;7.88;;;4.70;;
24521;SDS011;12680;57.804;12.190;2023-09-07T06:06:47;8.38;;;4.50;;
24521;SDS011;12680;57.804;12.190;2023-09-07T06:09:14;8.25;;;4.65;;
24521;SDS011;12680;57.804;12.190;2023-09-07T06:11:47;6.28;;;4.63;;
24521;SDS011;12680;57.804;12.190;2023-09-07T06:14:14;7.30;;;4.90;;
24521;SDS011;12680;57.804;12.190;2023-09-07T06:16:47;11.35;;;4.70;;
24521;SDS011;12680;57.804;12.190;2023-09-07T06:19:14;10.73;;;5.15;;
24521;SDS011;12680;57.804;12.190;2023-09-07T06:21:44;7.60;;;4.43;;
24521;SDS011;12680;57.804;12.190;2023-09-07T06:24:18;6.05;;;4.28;;
24521;SDS011;12680;57.804;12.190;2023-09-07T06:26:46;9.30;;;4.43;;
24521;SDS011;12680;57.804;12.190;2023-09-07T06:29:21;8.35;;;4.05;;
24521;SDS011;12680;57.804;12.190;2023-09-07T06:31:48;7.55;;;4.22;;
24521;SDS011;12680;57.804;12.190;2023-09-07T06:34:20;8.88;;;4.55;;
24521;SDS011;12680;57.804;12.190;2023-09-07T06:36:53;5.65;;;3.78;;
24521;SDS011;12680;57.804;12.190;2023-09-07T06:39:20;9.07;;;4.35;;
24521;SDS011;12680;57.804;12.190;2023-09-07T06:41:47;7.97;;;4.22;;
24521;SDS011;12680;57.804;12.190;2023-09-07T06:44:20;5.78;;;4.55;;
24521;SDS011;12680;57.804;12.190;2023-09-07T06:46:47;6.43;;;3.90;;
24521;SDS011;12680;57.804;12.190;2023-09-07T06:49:20;7.07;;;4.03;;
24521;SDS011;12680;57.804;12.190;2023-09-07T06:51:47;6.70;;;4.32;;
24521;SDS011;12680;57.804;12.190;2023-09-07T06:54:27;10.50;;;4.45;;
24521;SDS011;12680;57.804;12.190;2023-09-07T06:56:55;6.97;;;3.70;;
24521;SDS011;12680;57.804;12.190;2023-09-07T06:59:28;8.45;;;4.40;;
24521;SDS011;12680;57.804;12.190;2023-09-07T07:01:55;5.88;;;4.35;;
24521;SDS011;12680;57.804;12.190;2023-09-07T07:04:25;6.53;;;3.85;;
24521;SDS011;12680;57.804;12.190;2023-09-07T07:06:59;6.80;;;3.65;;
24521;SDS011;12680;57.804;12.190;2023-09-07T07:09:30;7.63;;;3.37;;
24521;SDS011;12680;57.804;12.190;2023-09-07T07:11:58;5.35;;;3.30;;
24521;SDS011;12680;57.804;12.190;2023-09-07T07:14:36;6.80;;;3.60;;
24521;SDS011;12680;57.804;12.190;2023-09-07T07:17:03;6.18;;;3.80;;
24521;SDS011;12680;57.804;12.190;2023-09-07T07:19:31;5.72;;;3.40;;
24521;SDS011;12680;57.804;12.190;2023-09-07T07:22:05;6.55;;;3.80;;
24521;SDS011;12680;57.804;12.190;2023-09-07T07:24:32;5.85;;;3.90;;
24521;SDS011;12680;57.804;12.190;2023-09-07T07:27:08;4.85;;;3.45;;
24521;SDS011;12680;57.804;12.190;2023-09-07T07:29:39;5.75;;;3.53;;
24521;SDS011;12680;57.804;12.190;2023-09-07T07:32:12;5.85;;;3.47;;
24521;SDS011;12680;57.804;12.190;2023-09-07T07:34:39;4.97;;;3.20;;
24521;SDS011;12680;57.804;12.190;2023-09-07T07:37:16;5.63;;;3.80;;
24521;SDS011;12680;57.804;12.190;2023-09-07T07:39:43;6.82;;;3.80;;
24521;SDS011;12680;57.804;12.190;2023-09-07T07:42:10;6.60;;;3.53;;
24521;SDS011;12680;57.804;12.190;2023-09-07T07:44:46;4.93;;;3.60;;
24521;SDS011;12680;57.804;12.190;2023-09-07T07:47:13;6.03;;;3.83;;
24521;SDS011;12680;57.804;12.190;2023-09-07T07:49:40;6.32;;;3.53;;
24521;SDS011;12680;57.804;12.190;2023-09-07T07:52:20;5.65;;;3.35;;
24521;SDS011;12680;57.804;12.190;2023-09-07T07:54:48;6.18;;;3.33;;
24521;SDS011;12680;57.804;12.190;2023-09-07T07:57:28;6.97;;;3.38;;
24521;SDS011;12680;57.804;12.190;2023-09-07T07:59:57;6.20;;;3.50;;
24521;SDS011;12680;57.804;12.190;2023-09-07T08:02:31;7.13;;;3.42;;
24521;SDS011;12680;57.804;12.190;2023-09-07T08:04:58;4.38;;;3.13;;
24521;SDS011;12680;57.804;12.190;2023-09-07T08:07:25;4.43;;;3.28;;
24521;SDS011;12680;57.804;12.190;2023-09-07T08:10:00;8.75;;;3.85;;
24521;SDS011;12680;57.804;12.190;2023-09-07T08:12:27;7.22;;;3.47;;
24521;SDS011;12680;57.804;12.190;2023-09-07T08:14:54;5.15;;;3.30;;
24521;SDS011;12680;57.804;12.190;2023-09-07T08:17:28;4.32;;;3.00;;
24521;SDS011;12680;57.804;12.190;2023-09-07T08:19:58;3.45;;;2.80;;
24521;SDS011;12680;57.804;12.190;2023-09-07T08:22:39;5.95;;;2.90;;
24521;SDS011;12680;57.804;12.190;2023-09-07T08:25:09;3.85;;;2.88;;
24521;SDS011;12680;57.804;12.190;2023-09-07T08:27:43;6.07;;;2.97;;
24521;SDS011;12680;57.804;12.190;2023-09-07T08:30:12;3.67;;;2.70;;
24521;SDS011;12680;57.804;12.190;2023-09-07T08:32:55;5.00;;;3.30;;
24521;SDS011;12680;57.804;12.190;2023-09-07T08:35:22;5.75;;;3.17;;
24521;SDS011;12680;57.804;12.190;2023-09-07T08:37:56;5.85;;;3.13;;
24521;SDS011;12680;57.804;12.190;2023-09-07T08:40:31;7.07;;;2.97;;
24521;SDS011;12680;57.804;12.190;2023-09-07T08:43:02;3.80;;;2.70;;
24521;SDS011;12680;57.804;12.190;2023-09-07T08:48:33;4.80;;;2.60;;
24521;SDS011;12680;57.804;12.190;2023-09-07T08:51:09;2.63;;;2.40;;
24521;SDS011;12680;57.804;12.190;2023-09-07T08:53:39;5.47;;;2.70;;
24521;SDS011;12680;57.804;12.190;2023-09-07T08:56:20;3.55;;;2.75;;
24521;SDS011;12680;57.804;12.190;2023-09-07T08:58:47;4.70;;;2.58;;
24521;SDS011;12680;57.804;12.190;2023-09-07T09:01:22;5.03;;;2.65;;
24521;SDS011;12680;57.804;12.190;2023-09-07T09:03:49;7.65;;;2.53;;
24521;SDS011;12680;57.804;12.190;2023-09-07T09:06:20;4.50;;;2.33;;
24521;SDS011;12680;57.804;12.190;2023-09-07T09:08:55;4.35;;;2.67;;
24521;SDS011;12680;57.804;12.190;2023-09-07T09:11:23;4.78;;;2.45;;
24521;SDS011;12680;57.804;12.190;2023-09-07T09:13:57;7.05;;;2.70;;
24521;SDS011;12680;57.804;12.190;2023-09-07T09:16:24;6.38;;;2.42;;
24521;SDS011;12680;57.804;12.190;2023-09-07T09:18:58;5.30;;;2.55;;
24521;SDS011;12680;57.804;12.190;2023-09-07T09:21:26;2.72;;;2.20;;
24521;SDS011;12680;57.804;12.190;2023-09-07T09:23:53;4.40;;;2.30;;
24521;SDS011;12680;57.804;12.190;2023-09-07T09:26:28;5.18;;;2.65;;
24521;SDS011;12680;57.804;12.190;2023-09-07T09:28:56;5.90;;;2.40;;
24521;SDS011;12680;57.804;12.190;2023-09-07T09:31:29;3.10;;;2.30;;
24521;SDS011;12680;57.804;12.190;2023-09-07T09:33:57;3.13;;;2.30;;
24521;SDS011;12680;57.804;12.190;2023-09-07T09:36:35;3.00;;;2.70;;
24521;SDS011;12680;57.804;12.190;2023-09-07T09:41:32;5.65;;;2.50;;
24521;SDS011;12680;57.804;12.190;2023-09-07T09:44:08;4.43;;;2.38;;
24521;SDS011;12680;57.804;12.190;2023-09-07T09:46:36;3.15;;;2.28;;
24521;SDS011;12680;57.804;12.190;2023-09-07T09:49:12;4.75;;;2.22;;
24521;SDS011;12680;57.804;12.190;2023-09-07T09:51:41;2.88;;;2.22;;
24521;SDS011;12680;57.804;12.190;2023-09-07T09:54:16;5.95;;;2.47;;
24521;SDS011;12680;57.804;12.190;2023-09-07T09:56:57;4.22;;;2.30;;
24521;SDS011;12680;57.804;12.190;2023-09-07T09:59:33;3.45;;;2.25;;
24521;SDS011;12680;57.804;12.190;2023-09-07T10:02:00;6.57;;;2.22;;
24521;SDS011;12680;57.804;12.190;2023-09-07T10:04:35;3.35;;;2.35;;
24521;SDS011;12680;57.804;12.190;2023-09-07T10:07:02;2.85;;;2.00;;
24521;SDS011;12680;57.804;12.190;2023-09-07T10:09:32;5.30;;;2.72;;
24521;SDS011;12680;57.804;12.190;2023-09-07T10:12:10;3.08;;;1.80;;
24521;SDS011;12680;57.804;12.190;2023-09-07T10:14:41;4.68;;;1.88;;
24521;SDS011;12680;57.804;12.190;2023-09-07T10:17:24;5.55;;;2.55;;
24521;SDS011;12680;57.804;12.190;2023-09-07T10:20:01;6.07;;;2.20;;
24521;SDS011;12680;57.804;12.190;2023-09-07T10:22:38;3.70;;;2.13;;
24521;SDS011;12680;57.804;12.190;2023-09-07T10:25:05;6.60;;;2.50;;
24521;SDS011;12680;57.804;12.190;2023-09-07T10:27:44;5.03;;;2.22;;
24521;SDS011;12680;57.804;12.190;2023-09-07T10:30:11;2.75;;;2.00;;
24521;SDS011;12680;57.804;12.190;2023-09-07T10:32:52;3.70;;;2.13;;
24521;SDS011;12680;57.804;12.190;2023-09-07T10:35:19;3.40;;;2.20;;
24521;SDS011;12680;57.804;12.190;2023-09-07T10:37:50;3.33;;;2.38;;
24521;SDS011;12680;57.804;12.190;2023-09-07T10:40:24;7.68;;;2.20;;
24521;SDS011;12680;57.804;12.190;2023-09-07T10:43:01;3.22;;;2.30;;
24521;SDS011;12680;57.804;12.190;2023-09-07T10:45:36;5.22;;;2.42;;
24521;SDS011;12680;57.804;12.190;2023-09-07T10:48:03;3.78;;;2.20;;
24521;SDS011;12680;57.804;12.190;2023-09-07T10:50:30;5.28;;;2.28;;
24521;SDS011;12680;57.804;12.190;2023-09-07T10:53:14;4.07;;;2.20;;
24521;SDS011;12680;57.804;12.190;2023-09-07T10:56:04;3.28;;;2.13;;
24521;SDS011;12680;57.804;12.190;2023-09-07T10:58:38;4.78;;;2.47;;
24521;SDS011;12680;57.804;12.190;2023-09-07T11:01:08;4.45;;;2.25;;
24521;SDS011;12680;57.804;12.190;2023-09-07T11:03:43;3.25;;;2.30;;
24521;SDS011;12680;57.804;12.190;2023-09-07T11:06:10;4.00;;;2.22;;
24521;SDS011;12680;57.804;12.190;2023-09-07T11:08:52;3.75;;;2.25;;
24521;SDS011;12680;57.804;12.190;2023-09-07T11:11:19;3.35;;;2.47;;
24521;SDS011;12680;57.804;12.190;2023-09-07T11:13:56;3.33;;;2.25;;
24521;SDS011;12680;57.804;12.190;2023-09-07T11:16:24;3.05;;;2.40;;
24521;SDS011;12680;57.804;12.190;2023-09-07T11:18:52;4.95;;;2.40;;
24521;SDS011;12680;57.804;12.190;2023-09-07T11:21:27;3.15;;;2.08;;
24521;SDS011;12680;57.804;12.190;2023-09-07T11:23:54;5.70;;;2.00;;
24521;SDS011;12680;57.804;12.190;2023-09-07T11:26:29;2.97;;;2.10;;
24521;SDS011;12680;57.804;12.190;2023-09-07T11:29:06;5.00;;;2.30;;
24521;SDS011;12680;57.804;12.190;2023-09-07T11:31:39;5.72;;;2.40;;
24521;SDS011;12680;57.804;12.190;2023-09-07T11:34:10;4.20;;;2.20;;
24521;SDS011;12680;57.804;12.190;2023-09-07T11:36:38;3.90;;;2.28;;
24521;SDS011;12680;57.804;12.190;2023-09-07T11:39:12;4.05;;;1.90;;
24521;SDS011;12680;57.804;12.190;2023-09-07T11:41:42;4.72;;;2.53;;
24521;SDS011;12680;57.804;12.190;2023-09-07T11:44:17;3.35;;;2.10;;
24521;SDS011;12680;57.804;12.190;2023-09-07T11:46:44;2.85;;;1.88;;
24521;SDS011;12680;57.804;12.190;2023-09-07T11:49:17;3.30;;;2.20;;
24521;SDS011;12680;57.804;12.190;2023-09-07T11:51:46;4.38;;;2.10;;
24521;SDS011;12680;57.804;12.190;2023-09-07T11:54:23;2.90;;;1.83;;
24521;SDS011;12680;57.804;12.190;2023-09-07T11:57:03;4.20;;;2.08;;
24521;SDS011;12680;57.804;12.190;2023-09-07T11:59:36;4.30;;;2.25;;
24521;SDS011;12680;57.804;12.190;2023-09-07T12:02:21;2.38;;;2.05;;
24521;SDS011;12680;57.804;12.190;2023-09-07T12:04:55;4.03;;;2.10;;
24521;SDS011;12680;57.804;12.190;2023-09-07T12:07:29;3.05;;;2.10;;
24521;SDS011;12680;57.804;12.190;2023-09-07T12:09:56;2.88;;;2.05;;
24521;SDS011;12680;57.804;12.190;2023-09-07T12:12:34;2.67;;;1.88;;
24521;SDS011;12680;57.804;12.190;2023-09-07T12:15:00;2.63;;;2.10;;
24521;SDS011;12680;57.804;12.190;2023-09-07T12:17:36;4.63;;;2.15;;
24521;SDS011;12680;57.804;12.190;2023-09-07T12:20:04;4.15;;;1.92;;
24521;SDS011;12680;57.804;12.190;2023-09-07T12:22:42;2.00;;;1.80;;
24521;SDS011;12680;57.804;12.190;2023-09-07T12:25:09;4.53;;;2.00;;
24521;SDS011;12680;57.804;12.190;2023-09-07T12:27:41;2.83;;;2.10;;
24521;SDS011;12680;57.804;12.190;2023-09-07T12:30:20;4.22;;;2.08;;
24521;SDS011;12680;57.804;12.190;2023-09-07T12:32:50;4.25;;;1.75;;
24521;SDS011;12680;57.804;12.190;2023-09-07T12:35:24;3.83;;;1.77;;
24521;SDS011;12680;57.804;12.190;2023-09-07T12:37:51;3.38;;;1.98;;
24521;SDS011;12680;57.804;12.190;2023-09-07T12:40:24;3.42;;;1.90;;
24521;SDS011;12680;57.804;12.190;2023-09-07T12:42:54;4.63;;;2.10;;
24521;SDS011;12680;57.804;12.190;2023-09-07T12:45:31;2.47;;;1.63;;
24521;SDS011;12680;57.804;12.190;2023-09-07T12:47:59;5.43;;;2.05;;
24521;SDS011;12680;57.804;12.190;2023-09-07T12:50:31;2.95;;;1.88;;
24521;SDS011;12680;57.804;12.190;2023-09-07T12:53:12;2.67;;;1.73;;
24521;SDS011;12680;57.804;12.190;2023-09-07T12:55:53;2.20;;;1.90;;
24521;SDS011;12680;57.804;12.190;2023-09-07T12:58:26;2.97;;;1.85;;
24521;SDS011;12680;57.804;12.190;2023-09-07T13:00:57;4.65;;;2.10;;
24521;SDS011;12680;57.804;12.190;2023-09-07T13:03:30;3.35;;;2.17;;
24521;SDS011;12680;57.804;12.190;2023-09-07T13:05:58;1.80;;;1.70;;
24521;SDS011;12680;57.804;12.190;2023-09-07T13:08:35;3.08;;;2.05;;
24521;SDS011;12680;57.804;12.190;2023-09-07T13:11:02;4.78;;;2.30;;
24521;SDS011;12680;57.804;12.190;2023-09-07T13:13:29;1.98;;;1.77;;
24521;SDS011;12680;57.804;12.190;2023-09-07T13:16:02;3.63;;;1.90;;
24521;SDS011;12680;57.804;12.190;2023-09-07T13:18:32;7.07;;;2.28;;
24521;SDS011;12680;57.804;12.190;2023-09-07T13:21:05;2.92;;;2.08;;
24521;SDS011;12680;57.804;12.190;2023-09-07T13:23:35;2.90;;;1.80;;
24521;SDS011;12680;57.804;12.190;2023-09-07T13:26:15;2.25;;;2.00;;
24521;SDS011;12680;57.804;12.190;2023-09-07T13:28:44;2.83;;;1.92;;
24521;SDS011;12680;57.804;12.190;2023-09-07T13:31:14;3.53;;;1.80;;
24521;SDS011;12680;57.804;12.190;2023-09-07T13:33:51;3.30;;;1.90;;
24521;SDS011;12680;57.804;12.190;2023-09-07T13:36:19;2.05;;;1.75;;
24521;SDS011;12680;57.804;12.190;2023-09-07T13:38:52;2.20;;;1.80;;
24521;SDS011;12680;57.804;12.190;2023-09-07T13:41:23;2.22;;;1.70;;
24521;SDS011;12680;57.804;12.190;2023-09-07T13:43:59;2.17;;;1.70;;
24521;SDS011;12680;57.804;12.190;2023-09-07T13:46:27;1.92;;;1.58;;
24521;SDS011;12680;57.804;12.190;2023-09-07T13:49:03;3.97;;;2.13;;
24521;SDS011;12680;57.804;12.190;2023-09-07T13:51:34;5.15;;;1.98;;
24521;SDS011;12680;57.804;12.190;2023-09-07T13:54:11;2.38;;;1.83;;
24521;SDS011;12680;57.804;12.190;2023-09-07T13:56:51;2.85;;;2.08;;
24521;SDS011;12680;57.804;12.190;2023-09-07T13:59:24;2.15;;;1.70;;
24521;SDS011;12680;57.804;12.190;2023-09-07T14:02:01;2.25;;;1.77;;
24521;SDS011;12680;57.804;12.190;2023-09-07T14:04:35;2.35;;;1.85;;
24521;SDS011;12680;57.804;12.190;2023-09-07T14:07:02;2.10;;;1.65;;
24521;SDS011;12680;57.804;12.190;2023-09-07T14:09:32;1.98;;;1.50;;
24521;SDS011;12680;57.804;12.190;2023-09-07T14:12:06;3.35;;;2.10;;
24521;SDS011;12680;57.804;12.190;2023-09-07T14:14:40;3.95;;;2.05;;
24521;SDS011;12680;57.804;12.190;2023-09-07T14:17:13;2.60;;;1.75;;
24521;SDS011;12680;57.804;12.190;2023-09-07T14:19:44;5.75;;;2.20;;
24521;SDS011;12680;57.804;12.190;2023-09-07T14:22:12;2.95;;;1.83;;
24521;SDS011;12680;57.804;12.190;2023-09-07T14:24:45;2.58;;;2.03;;
24521;SDS011;12680;57.804;12.190;2023-09-07T14:27:12;4.05;;;2.17;;
24521;SDS011;12680;57.804;12.190;2023-09-07T14:29:52;2.50;;;1.70;;
24521;SDS011;12680;57.804;12.190;2023-09-07T14:32:22;5.40;;;2.00;;
24521;SDS011;12680;57.804;12.190;2023-09-07T14:34:55;1.90;;;1.55;;
24521;SDS011;12680;57.804;12.190;2023-09-07T14:37:22;3.08;;;1.83;;
24521;SDS011;12680;57.804;12.190;2023-09-07T14:39:55;1.70;;;1.60;;
24521;SDS011;12680;57.804;12.190;2023-09-07T14:42:24;4.22;;;1.63;;
24521;SDS011;12680;57.804;12.190;2023-09-07T14:44:51;2.97;;;1.88;;
24521;SDS011;12680;57.804;12.190;2023-09-07T14:47:29;3.70;;;1.80;;
24521;SDS011;12680;57.804;12.190;2023-09-07T14:49:55;3.40;;;2.07;;
24521;SDS011;12680;57.804;12.190;2023-09-07T14:52:30;2.80;;;1.73;;
24521;SDS011;12680;57.804;12.190;2023-09-07T14:54:58;2.40;;;1.70;;
24521;SDS011;12680;57.804;12.190;2023-09-07T14:57:42;3.90;;;2.10;;
24521;SDS011;12680;57.804;12.190;2023-09-07T15:00:09;3.35;;;1.88;;
24521;SDS011;12680;57.804;12.190;2023-09-07T15:02:44;3.88;;;1.92;;
24521;SDS011;12680;57.804;12.190;2023-09-07T15:05:11;2.25;;;1.95;;
24521;SDS011;12680;57.804;12.190;2023-09-07T15:07:38;4.15;;;2.10;;